sensor_id;sensor_type;location;lat;lon;timestamp;P1;durP1;ratioP1;P2;durP2;ratioP2
9767;SDS011;4923;52.520;13.494;2022-09-09T00:02:28;15.90;;;12.43;;
9767;SDS011;4923;52.520;13.494;2022-09-09T00:05:17;15.60;;;11.60;;
9767;SDS011;4923;52.520;13.494;2022-09-09T00:08:13;18.93;;;11.37;;
9767;SDS011;4923;52.520;13.494;2022-09-09T00:11:07;15.00;;;11.30;;
9767;SDS011;4923;52.520;13.494;2022-09-09T00:13:59;17.67;;;11.40;;
9767;SDS011;4923;52.520;13.494;2022-09-09T00:16:52;16.40;;;11.50;;
9767;SDS011;4923;52.520;13.494;2022-09-09T00:19:44;16.10;;;11.00;;
9767;SDS011;4923;52.520;13.494;2022-09-09T00:22:35;20.47;;;12.30;;
9767;SDS011;4923;52.520;13.494;2022-09-09T00:25:27;24.03;;;12.20;;
9767;SDS011;4923;52.520;13.494;2022-09-09T00:28:20;16.20;;;12.40;;
9767;SDS011;4923;52.520;13.494;2022-09-09T00:31:11;22.40;;;12.70;;
9767;SDS011;4923;52.520;13.494;2022-09-09T00:34:05;18.20;;;12.83;;
9767;SDS011;4923;52.520;13.494;2022-09-09T00:36:58;14.37;;;12.30;;
9767;SDS011;4923;52.520;13.494;2022-09-09T00:39:46;19.53;;;13.13;;
9767;SDS011;4923;52.520;13.494;2022-09-09T00:42:39;15.40;;;12.10;;
9767;SDS011;4923;52.520;13.494;2022-09-09T00:45:36;17.20;;;12.60;;
9767;SDS011;4923;52.520;13.494;2022-09-09T00:48:33;14.97;;;12.27;;
9767;SDS011;4923;52.520;13.494;2022-09-09T00:51:33;16.40;;;12.40;;
9767;SDS011;4923;52.520;13.494;2022-09-09T00:54:35;18.47;;;12.77;;
9767;SDS011;4923;52.520;13.494;2022-09-09T00:57:32;17.67;;;12.00;;
9767;SDS011;4923;52.520;13.494;2022-09-09T01:00:21;17.63;;;12.40;;
9767;SDS011;4923;52.520;13.494;2022-09-09T01:03:19;17.23;;;11.30;;
9767;SDS011;4923;52.520;13.494;2022-09-09T01:06:13;14.90;;;11.00;;
9767;SDS011;4923;52.520;13.494;2022-09-09T01:09:14;13.13;;;10.63;;
9767;SDS011;4923;52.520;13.494;2022-09-09T01:12:09;15.90;;;11.30;;
9767;SDS011;4923;52.520;13.494;2022-09-09T01:15:03;12.10;;;10.50;;
9767;SDS011;4923;52.520;13.494;2022-09-09T01:17:58;17.03;;;10.73;;
9767;SDS011;4923;52.520;13.494;2022-09-09T01:20:53;12.87;;;10.67;;
9767;SDS011;4923;52.520;13.494;2022-09-09T01:23:51;13.50;;;9.97;;
9767;SDS011;4923;52.520;13.494;2022-09-09T01:26:52;18.07;;;10.83;;
9767;SDS011;4923;52.520;13.494;2022-09-09T01:29:43;16.93;;;10.63;;
9767;SDS011;4923;52.520;13.494;2022-09-09T01:32:37;16.03;;;9.70;;
9767;SDS011;4923;52.520;13.494;2022-09-09T01:35:29;13.53;;;9.53;;
9767;SDS011;4923;52.520;13.494;2022-09-09T01:38:23;13.20;;;10.20;;
9767;SDS011;4923;52.520;13.494;2022-09-09T01:41:11;15.07;;;9.47;;
9767;SDS011;4923;52.520;13.494;2022-09-09T01:44:00;12.20;;;9.27;;
9767;SDS011;4923;52.520;13.494;2022-09-09T01:46:47;15.00;;;10.60;;
9767;SDS011;4923;52.520;13.494;2022-09-09T01:49:34;17.63;;;11.30;;
9767;SDS011;4923;52.520;13.494;2022-09-09T01:52:21;14.23;;;9.77;;
9767;SDS011;4923;52.520;13.494;2022-09-09T01:55:08;16.30;;;9.70;;
9767;SDS011;4923;52.520;13.494;2022-09-09T01:57:59;12.37;;;9.50;;
9767;SDS011;4923;52.520;13.494;2022-09-09T02:01:00;16.00;;;9.90;;
9767;SDS011;4923;52.520;13.494;2022-09-09T02:03:52;10.77;;;9.67;;
9767;SDS011;4923;52.520;13.494;2022-09-09T02:06:43;11.60;;;9.37;;
9767;SDS011;4923;52.520;13.494;2022-09-09T02:09:32;13.40;;;9.57;;
9767;SDS011;4923;52.520;13.494;2022-09-09T02:12:20;15.27;;;9.03;;
9767;SDS011;4923;52.520;13.494;2022-09-09T02:15:14;13.53;;;10.00;;
9767;SDS011;4923;52.520;13.494;2022-09-09T02:18:07;14.70;;;10.60;;
9767;SDS011;4923;52.520;13.494;2022-09-09T02:20:56;15.97;;;9.80;;
9767;SDS011;4923;52.520;13.494;2022-09-09T02:23:46;15.00;;;9.30;;
9767;SDS011;4923;52.520;13.494;2022-09-09T02:26:38;15.57;;;10.20;;
9767;SDS011;4923;52.520;13.494;2022-09-09T02:29:28;14.15;;;9.52;;
9767;SDS011;4923;52.520;13.494;2022-09-09T02:32:18;11.20;;;8.60;;
9767;SDS011;4923;52.520;13.494;2022-09-09T02:35:10;11.30;;;8.57;;
9767;SDS011;4923;52.520;13.494;2022-09-09T02:38:02;14.80;;;9.30;;
9767;SDS011;4923;52.520;13.494;2022-09-09T02:40:53;11.70;;;9.13;;
9767;SDS011;4923;52.520;13.494;2022-09-09T02:43:40;10.20;;;8.80;;
9767;SDS011;4923;52.520;13.494;2022-09-09T02:46:35;20.60;;;9.87;;
9767;SDS011;4923;52.520;13.494;2022-09-09T02:49:32;23.30;;;9.55;;
9767;SDS011;4923;52.520;13.494;2022-09-09T02:52:30;16.90;;;9.30;;
9767;SDS011;4923;52.520;13.494;2022-09-09T02:55:23;15.00;;;9.80;;
9767;SDS011;4923;52.520;13.494;2022-09-09T02:58:17;17.47;;;8.70;;
9767;SDS011;4923;52.520;13.494;2022-09-09T03:01:04;11.70;;;9.07;;
9767;SDS011;4923;52.520;13.494;2022-09-09T03:03:52;13.98;;;9.18;;
9767;SDS011;4923;52.520;13.494;2022-09-09T03:06:40;14.35;;;9.65;;
9767;SDS011;4923;52.520;13.494;2022-09-09T03:09:28;19.57;;;8.70;;
9767;SDS011;4923;52.520;13.494;2022-09-09T03:12:16;10.30;;;8.53;;
9767;SDS011;4923;52.520;13.494;2022-09-09T03:15:03;10.52;;;8.85;;
9767;SDS011;4923;52.520;13.494;2022-09-09T03:17:51;10.88;;;8.88;;
9767;SDS011;4923;52.520;13.494;2022-09-09T03:20:38;9.43;;;8.17;;
9767;SDS011;4923;52.520;13.494;2022-09-09T03:23:27;10.83;;;9.07;;
9767;SDS011;4923;52.520;13.494;2022-09-09T03:26:16;9.03;;;8.13;;
9767;SDS011;4923;52.520;13.494;2022-09-09T03:29:03;11.65;;;8.30;;
9767;SDS011;4923;52.520;13.494;2022-09-09T03:31:51;10.20;;;9.17;;
9767;SDS011;4923;52.520;13.494;2022-09-09T03:34:38;10.40;;;8.77;;
9767;SDS011;4923;52.520;13.494;2022-09-09T03:37:25;10.80;;;8.48;;
9767;SDS011;4923;52.520;13.494;2022-09-09T03:40:13;10.13;;;9.10;;
9767;SDS011;4923;52.520;13.494;2022-09-09T03:43:02;8.83;;;7.97;;
9767;SDS011;4923;52.520;13.494;2022-09-09T03:45:49;11.73;;;8.57;;
9767;SDS011;4923;52.520;13.494;2022-09-09T03:48:36;12.50;;;8.63;;
9767;SDS011;4923;52.520;13.494;2022-09-09T03:51:23;12.97;;;8.60;;
9767;SDS011;4923;52.520;13.494;2022-09-09T03:54:10;8.95;;;8.05;;
9767;SDS011;4923;52.520;13.494;2022-09-09T03:56:57;10.75;;;7.72;;
9767;SDS011;4923;52.520;13.494;2022-09-09T03:59:45;13.05;;;9.52;;
9767;SDS011;4923;52.520;13.494;2022-09-09T04:02:32;10.48;;;9.30;;
9767;SDS011;4923;52.520;13.494;2022-09-09T04:05:19;11.40;;;8.73;;
9767;SDS011;4923;52.520;13.494;2022-09-09T04:08:06;12.30;;;9.00;;
9767;SDS011;4923;52.520;13.494;2022-09-09T04:10:53;9.75;;;8.73;;
9767;SDS011;4923;52.520;13.494;2022-09-09T04:13:43;11.73;;;8.67;;
9767;SDS011;4923;52.520;13.494;2022-09-09T04:16:32;11.15;;;8.88;;
9767;SDS011;4923;52.520;13.494;2022-09-09T04:19:19;11.13;;;7.65;;
9767;SDS011;4923;52.520;13.494;2022-09-09T04:22:06;13.77;;;8.43;;
9767;SDS011;4923;52.520;13.494;2022-09-09T04:24:53;8.00;;;7.18;;
9767;SDS011;4923;52.520;13.494;2022-09-09T04:27:40;16.08;;;8.50;;
9767;SDS011;4923;52.520;13.494;2022-09-09T04:30:28;13.55;;;8.20;;
9767;SDS011;4923;52.520;13.494;2022-09-09T04:33:16;20.63;;;9.40;;
9767;SDS011;4923;52.520;13.494;2022-09-09T04:36:03;10.50;;;8.25;;
9767;SDS011;4923;52.520;13.494;2022-09-09T04:38:51;14.43;;;8.80;;
9767;SDS011;4923;52.520;13.494;2022-09-09T04:41:38;14.17;;;7.77;;
9767;SDS011;4923;52.520;13.494;2022-09-09T04:44:27;10.20;;;7.70;;
9767;SDS011;4923;52.520;13.494;2022-09-09T04:47:13;17.92;;;7.97;;
9767;SDS011;4923;52.520;13.494;2022-09-09T04:50:02;11.68;;;7.70;;
9767;SDS011;4923;52.520;13.494;2022-09-09T04:52:49;13.87;;;8.43;;
9767;SDS011;4923;52.520;13.494;2022-09-09T04:55:36;10.17;;;8.23;;
9767;SDS011;4923;52.520;13.494;2022-09-09T04:58:23;13.13;;;7.35;;
9767;SDS011;4923;52.520;13.494;2022-09-09T05:01:11;10.73;;;8.50;;
9767;SDS011;4923;52.520;13.494;2022-09-09T05:03:59;8.13;;;6.97;;
9767;SDS011;4923;52.520;13.494;2022-09-09T05:06:48;13.10;;;7.75;;
9767;SDS011;4923;52.520;13.494;2022-09-09T05:09:35;7.72;;;6.95;;
9767;SDS011;4923;52.520;13.494;2022-09-09T05:12:23;11.53;;;7.20;;
9767;SDS011;4923;52.520;13.494;2022-09-09T05:15:11;9.00;;;8.20;;
9767;SDS011;4923;52.520;13.494;2022-09-09T05:17:58;7.53;;;6.77;;
9767;SDS011;4923;52.520;13.494;2022-09-09T05:20:45;7.17;;;6.27;;
9767;SDS011;4923;52.520;13.494;2022-09-09T05:23:34;13.73;;;7.37;;
9767;SDS011;4923;52.520;13.494;2022-09-09T05:26:21;8.63;;;7.67;;
9767;SDS011;4923;52.520;13.494;2022-09-09T05:29:09;13.63;;;6.87;;
9767;SDS011;4923;52.520;13.494;2022-09-09T05:31:59;14.83;;;7.60;;
9767;SDS011;4923;52.520;13.494;2022-09-09T05:34:46;7.47;;;6.77;;
9767;SDS011;4923;52.520;13.494;2022-09-09T05:37:33;10.87;;;7.47;;
9767;SDS011;4923;52.520;13.494;2022-09-09T05:40:24;6.70;;;5.90;;
9767;SDS011;4923;52.520;13.494;2022-09-09T05:43:11;13.10;;;6.53;;
9767;SDS011;4923;52.520;13.494;2022-09-09T05:45:58;5.90;;;5.47;;
9767;SDS011;4923;52.520;13.494;2022-09-09T05:48:47;8.93;;;4.87;;
9767;SDS011;4923;52.520;13.494;2022-09-09T05:51:36;5.50;;;5.10;;
9767;SDS011;4923;52.520;13.494;2022-09-09T05:54:23;8.53;;;5.20;;
9767;SDS011;4923;52.520;13.494;2022-09-09T05:57:11;13.33;;;4.43;;
9767;SDS011;4923;52.520;13.494;2022-09-09T05:59:58;5.17;;;4.77;;
9767;SDS011;4923;52.520;13.494;2022-09-09T06:02:50;4.43;;;4.03;;
9767;SDS011;4923;52.520;13.494;2022-09-09T06:05:37;4.30;;;3.97;;
9767;SDS011;4923;52.520;13.494;2022-09-09T06:08:25;10.70;;;4.40;;
9767;SDS011;4923;52.520;13.494;2022-09-09T06:11:13;6.73;;;3.33;;
9767;SDS011;4923;52.520;13.494;2022-09-09T06:14:03;5.90;;;3.50;;
9767;SDS011;4923;52.520;13.494;2022-09-09T06:16:50;4.37;;;4.00;;
9767;SDS011;4923;52.520;13.494;2022-09-09T06:19:37;3.93;;;3.43;;
9767;SDS011;4923;52.520;13.494;2022-09-09T06:22:24;8.30;;;3.43;;
9767;SDS011;4923;52.520;13.494;2022-09-09T06:25:11;3.93;;;2.67;;
9767;SDS011;4923;52.520;13.494;2022-09-09T06:27:58;3.60;;;3.27;;
9767;SDS011;4923;52.520;13.494;2022-09-09T06:30:46;6.33;;;3.43;;
9767;SDS011;4923;52.520;13.494;2022-09-09T06:33:34;3.00;;;2.80;;
9767;SDS011;4923;52.520;13.494;2022-09-09T06:36:25;2.50;;;2.43;;
9767;SDS011;4923;52.520;13.494;2022-09-09T06:39:13;2.83;;;2.40;;
9767;SDS011;4923;52.520;13.494;2022-09-09T06:42:00;3.17;;;2.97;;
9767;SDS011;4923;52.520;13.494;2022-09-09T06:44:47;2.97;;;2.77;;
9767;SDS011;4923;52.520;13.494;2022-09-09T06:47:36;5.23;;;2.83;;
9767;SDS011;4923;52.520;13.494;2022-09-09T06:50:23;4.77;;;2.60;;
9767;SDS011;4923;52.520;13.494;2022-09-09T06:53:09;2.90;;;2.50;;
9767;SDS011;4923;52.520;13.494;2022-09-09T06:55:56;2.37;;;2.10;;
9767;SDS011;4923;52.520;13.494;2022-09-09T06:58:44;3.90;;;2.43;;
9767;SDS011;4923;52.520;13.494;2022-09-09T07:01:32;2.87;;;2.17;;
9767;SDS011;4923;52.520;13.494;2022-09-09T07:04:22;2.30;;;2.13;;
9767;SDS011;4923;52.520;13.494;2022-09-09T07:07:10;2.60;;;1.43;;
9767;SDS011;4923;52.520;13.494;2022-09-09T07:09:59;5.77;;;1.80;;
9767;SDS011;4923;52.520;13.494;2022-09-09T07:12:50;2.93;;;1.90;;
9767;SDS011;4923;52.520;13.494;2022-09-09T07:15:40;6.87;;;2.07;;
9767;SDS011;4923;52.520;13.494;2022-09-09T07:18:27;7.23;;;1.63;;
9767;SDS011;4923;52.520;13.494;2022-09-09T07:21:17;4.73;;;1.37;;
9767;SDS011;4923;52.520;13.494;2022-09-09T07:24:14;1.73;;;1.53;;
9767;SDS011;4923;52.520;13.494;2022-09-09T07:27:03;1.93;;;1.50;;
9767;SDS011;4923;52.520;13.494;2022-09-09T07:29:51;5.53;;;1.87;;
9767;SDS011;4923;52.520;13.494;2022-09-09T07:32:39;5.60;;;2.00;;
9767;SDS011;4923;52.520;13.494;2022-09-09T07:35:26;5.30;;;1.43;;
9767;SDS011;4923;52.520;13.494;2022-09-09T07:38:15;1.50;;;1.03;;
9767;SDS011;4923;52.520;13.494;2022-09-09T07:41:04;1.70;;;1.00;;
9767;SDS011;4923;52.520;13.494;2022-09-09T07:43:53;1.40;;;1.30;;
9767;SDS011;4923;52.520;13.494;2022-09-09T07:46:41;4.37;;;1.43;;
9767;SDS011;4923;52.520;13.494;2022-09-09T07:49:30;5.50;;;1.60;;
9767;SDS011;4923;52.520;13.494;2022-09-09T07:52:17;2.70;;;0.80;;
9767;SDS011;4923;52.520;13.494;2022-09-09T07:55:06;5.33;;;1.03;;
9767;SDS011;4923;52.520;13.494;2022-09-09T07:57:55;4.83;;;0.93;;
9767;SDS011;4923;52.520;13.494;2022-09-09T08:00:42;1.77;;;1.23;;
9767;SDS011;4923;52.520;13.494;2022-09-09T08:03:29;2.23;;;1.20;;
9767;SDS011;4923;52.520;13.494;2022-09-09T08:06:16;1.93;;;1.03;;
9767;SDS011;4923;52.520;13.494;2022-09-09T08:09:03;3.13;;;0.97;;
9767;SDS011;4923;52.520;13.494;2022-09-09T08:11:52;0.80;;;0.80;;
9767;SDS011;4923;52.520;13.494;2022-09-09T08:14:39;5.87;;;1.87;;
9767;SDS011;4923;52.520;13.494;2022-09-09T08:17:26;4.27;;;0.90;;
9767;SDS011;4923;52.520;13.494;2022-09-09T08:20:13;1.63;;;0.90;;
9767;SDS011;4923;52.520;13.494;2022-09-09T08:23:00;5.17;;;0.80;;
9767;SDS011;4923;52.520;13.494;2022-09-09T08:25:47;1.67;;;0.70;;
9767;SDS011;4923;52.520;13.494;2022-09-09T08:28:36;3.40;;;1.00;;
9767;SDS011;4923;52.520;13.494;2022-09-09T08:31:26;1.50;;;0.80;;
9767;SDS011;4923;52.520;13.494;2022-09-09T08:34:14;3.50;;;1.00;;
9767;SDS011;4923;52.520;13.494;2022-09-09T08:37:02;3.40;;;1.23;;
9767;SDS011;4923;52.520;13.494;2022-09-09T08:39:49;2.20;;;1.00;;
9767;SDS011;4923;52.520;13.494;2022-09-09T08:42:38;2.97;;;0.97;;
9767;SDS011;4923;52.520;13.494;2022-09-09T08:45:33;6.90;;;1.30;;
9767;SDS011;4923;52.520;13.494;2022-09-09T08:48:29;7.07;;;1.07;;
9767;SDS011;4923;52.520;13.494;2022-09-09T08:51:30;7.20;;;1.30;;
9767;SDS011;4923;52.520;13.494;2022-09-09T08:54:18;5.00;;;0.90;;
9767;SDS011;4923;52.520;13.494;2022-09-09T08:57:07;3.00;;;0.93;;
9767;SDS011;4923;52.520;13.494;2022-09-09T09:00:00;2.53;;;1.00;;
9767;SDS011;4923;52.520;13.494;2022-09-09T09:02:52;3.43;;;0.83;;
9767;SDS011;4923;52.520;13.494;2022-09-09T09:05:52;1.23;;;0.93;;
9767;SDS011;4923;52.520;13.494;2022-09-09T09:08:51;2.10;;;1.10;;
9767;SDS011;4923;52.520;13.494;2022-09-09T09:11:47;0.80;;;0.80;;
9767;SDS011;4923;52.520;13.494;2022-09-09T09:14:36;1.00;;;0.90;;
9767;SDS011;4923;52.520;13.494;2022-09-09T09:17:25;6.17;;;1.10;;
9767;SDS011;4923;52.520;13.494;2022-09-09T09:20:18;2.50;;;1.17;;
9767;SDS011;4923;52.520;13.494;2022-09-09T09:23:12;4.47;;;1.00;;
9767;SDS011;4923;52.520;13.494;2022-09-09T09:26:06;1.70;;;1.00;;
9767;SDS011;4923;52.520;13.494;2022-09-09T09:28:56;1.63;;;1.23;;
9767;SDS011;4923;52.520;13.494;2022-09-09T09:31:45;5.27;;;1.13;;
9767;SDS011;4923;52.520;13.494;2022-09-09T09:34:39;3.37;;;1.43;;
9767;SDS011;4923;52.520;13.494;2022-09-09T09:37:29;4.53;;;1.07;;
9767;SDS011;4923;52.520;13.494;2022-09-09T09:40:19;1.63;;;0.80;;
9767;SDS011;4923;52.520;13.494;2022-09-09T09:43:16;2.30;;;1.23;;
9767;SDS011;4923;52.520;13.494;2022-09-09T09:46:17;8.73;;;1.00;;
9767;SDS011;4923;52.520;13.494;2022-09-09T09:49:09;4.17;;;0.83;;
9767;SDS011;4923;52.520;13.494;2022-09-09T09:51:59;1.83;;;1.10;;
9767;SDS011;4923;52.520;13.494;2022-09-09T09:54:48;12.90;;;1.47;;
9767;SDS011;4923;52.520;13.494;2022-09-09T09:57:36;3.10;;;0.87;;
9767;SDS011;4923;52.520;13.494;2022-09-09T10:00:23;5.27;;;1.60;;
9767;SDS011;4923;52.520;13.494;2022-09-09T10:03:14;1.57;;;1.47;;
9767;SDS011;4923;52.520;13.494;2022-09-09T10:06:08;2.00;;;1.00;;
9767;SDS011;4923;52.520;13.494;2022-09-09T10:08:55;2.63;;;1.13;;
9767;SDS011;4923;52.520;13.494;2022-09-09T10:11:46;1.63;;;0.70;;
9767;SDS011;4923;52.520;13.494;2022-09-09T10:14:42;8.23;;;1.17;;
9767;SDS011;4923;52.520;13.494;2022-09-09T10:17:36;11.53;;;1.40;;
9767;SDS011;4923;52.520;13.494;2022-09-09T10:20:36;1.00;;;1.00;;
9767;SDS011;4923;52.520;13.494;2022-09-09T10:23:35;3.83;;;0.90;;
9767;SDS011;4923;52.520;13.494;2022-09-09T10:26:35;0.90;;;0.90;;
9767;SDS011;4923;52.520;13.494;2022-09-09T10:29:43;1.27;;;0.70;;
9767;SDS011;4923;52.520;13.494;2022-09-09T10:32:41;1.43;;;0.70;;
9767;SDS011;4923;52.520;13.494;2022-09-09T10:35:38;1.90;;;1.00;;
9767;SDS011;4923;52.520;13.494;2022-09-09T10:38:29;1.53;;;0.70;;
9767;SDS011;4923;52.520;13.494;2022-09-09T10:41:32;1.70;;;0.90;;
9767;SDS011;4923;52.520;13.494;2022-09-09T10:44:33;3.63;;;1.10;;
9767;SDS011;4923;52.520;13.494;2022-09-09T10:47:43;1.33;;;0.90;;
9767;SDS011;4923;52.520;13.494;2022-09-09T10:50:50;0.97;;;0.80;;
9767;SDS011;4923;52.520;13.494;2022-09-09T10:53:46;2.50;;;0.87;;
9767;SDS011;4923;52.520;13.494;2022-09-09T10:56:47;3.43;;;0.70;;
9767;SDS011;4923;52.520;13.494;2022-09-09T10:59:42;4.00;;;1.37;;
9767;SDS011;4923;52.520;13.494;2022-09-09T11:02:33;0.93;;;0.60;;
9767;SDS011;4923;52.520;13.494;2022-09-09T11:05:24;4.23;;;0.80;;
9767;SDS011;4923;52.520;13.494;2022-09-09T11:08:19;3.53;;;0.63;;
9767;SDS011;4923;52.520;13.494;2022-09-09T11:11:09;1.47;;;0.60;;
9767;SDS011;4923;52.520;13.494;2022-09-09T11:14:03;1.67;;;0.70;;
9767;SDS011;4923;52.520;13.494;2022-09-09T11:16:57;4.33;;;0.93;;
9767;SDS011;4923;52.520;13.494;2022-09-09T11:19:47;2.57;;;0.70;;
9767;SDS011;4923;52.520;13.494;2022-09-09T11:22:36;1.90;;;1.10;;
9767;SDS011;4923;52.520;13.494;2022-09-09T11:25:26;2.70;;;0.80;;
9767;SDS011;4923;52.520;13.494;2022-09-09T11:28:24;2.50;;;0.80;;
9767;SDS011;4923;52.520;13.494;2022-09-09T11:31:28;2.33;;;0.60;;
9767;SDS011;4923;52.520;13.494;2022-09-09T11:34:36;1.80;;;0.73;;
9767;SDS011;4923;52.520;13.494;2022-09-09T11:40:32;2.80;;;0.60;;
9767;SDS011;4923;52.520;13.494;2022-09-09T11:43:21;1.73;;;0.90;;
9767;SDS011;4923;52.520;13.494;2022-09-09T11:46:13;2.03;;;0.67;;
9767;SDS011;4923;52.520;13.494;2022-09-09T11:49:06;0.90;;;0.60;;
9767;SDS011;4923;52.520;13.494;2022-09-09T11:52:12;1.47;;;0.87;;
9767;SDS011;4923;52.520;13.494;2022-09-09T11:55:10;4.13;;;1.30;;
9767;SDS011;4923;52.520;13.494;2022-09-09T11:58:00;0.60;;;0.60;;
9767;SDS011;4923;52.520;13.494;2022-09-09T12:00:49;3.50;;;0.90;;
9767;SDS011;4923;52.520;13.494;2022-09-09T12:03:39;6.57;;;0.60;;
9767;SDS011;4923;52.520;13.494;2022-09-09T12:06:30;2.20;;;0.70;;
9767;SDS011;4923;52.520;13.494;2022-09-09T12:09:23;2.43;;;0.70;;
9767;SDS011;4923;52.520;13.494;2022-09-09T12:12:22;0.80;;;0.70;;
9767;SDS011;4923;52.520;13.494;2022-09-09T12:15:23;0.60;;;0.60;;
9767;SDS011;4923;52.520;13.494;2022-09-09T12:18:16;2.40;;;0.60;;
9767;SDS011;4923;52.520;13.494;2022-09-09T12:21:12;1.13;;;0.60;;
9767;SDS011;4923;52.520;13.494;2022-09-09T12:24:07;4.47;;;0.80;;
9767;SDS011;4923;52.520;13.494;2022-09-09T12:26:58;2.67;;;0.70;;
9767;SDS011;4923;52.520;13.494;2022-09-09T12:29:53;2.17;;;0.60;;
9767;SDS011;4923;52.520;13.494;2022-09-09T12:32:58;1.53;;;1.00;;
9767;SDS011;4923;52.520;13.494;2022-09-09T12:35:50;2.10;;;0.50;;
9767;SDS011;4923;52.520;13.494;2022-09-09T12:38:41;0.80;;;0.80;;
9767;SDS011;4923;52.520;13.494;2022-09-09T12:41:29;0.70;;;0.70;;
9767;SDS011;4923;52.520;13.494;2022-09-09T12:44:16;6.53;;;0.70;;
9767;SDS011;4923;52.520;13.494;2022-09-09T12:47:04;3.70;;;0.50;;
9767;SDS011;4923;52.520;13.494;2022-09-09T12:49:52;5.13;;;0.97;;
9767;SDS011;4923;52.520;13.494;2022-09-09T12:52:41;6.50;;;0.63;;
9767;SDS011;4923;52.520;13.494;2022-09-09T12:55:29;4.10;;;0.70;;
9767;SDS011;4923;52.520;13.494;2022-09-09T12:58:21;0.70;;;0.70;;
9767;SDS011;4923;52.520;13.494;2022-09-09T13:01:17;3.17;;;0.60;;
9767;SDS011;4923;52.520;13.494;2022-09-09T13:04:16;1.53;;;0.60;;
9767;SDS011;4923;52.520;13.494;2022-09-09T13:07:08;2.43;;;0.70;;
9767;SDS011;4923;52.520;13.494;2022-09-09T13:09:56;1.10;;;0.60;;
9767;SDS011;4923;52.520;13.494;2022-09-09T13:12:44;1.43;;;0.50;;
9767;SDS011;4923;52.520;13.494;2022-09-09T13:15:31;5.60;;;0.50;;
9767;SDS011;4923;52.520;13.494;2022-09-09T13:18:18;0.93;;;0.60;;
9767;SDS011;4923;52.520;13.494;2022-09-09T13:21:09;1.03;;;0.70;;
9767;SDS011;4923;52.520;13.494;2022-09-09T13:23:57;1.30;;;0.60;;
9767;SDS011;4923;52.520;13.494;2022-09-09T13:26:53;1.23;;;0.50;;
9767;SDS011;4923;52.520;13.494;2022-09-09T13:29:41;4.03;;;1.00;;
9767;SDS011;4923;52.520;13.494;2022-09-09T13:32:38;3.57;;;0.60;;
9767;SDS011;4923;52.520;13.494;2022-09-09T13:35:25;2.30;;;0.93;;
9767;SDS011;4923;52.520;13.494;2022-09-09T13:38:12;5.10;;;0.90;;
9767;SDS011;4923;52.520;13.494;2022-09-09T13:41:02;0.77;;;0.50;;
9767;SDS011;4923;52.520;13.494;2022-09-09T13:43:51;2.97;;;0.60;;
9767;SDS011;4923;52.520;13.494;2022-09-09T13:46:40;3.80;;;0.87;;
9767;SDS011;4923;52.520;13.494;2022-09-09T13:49:29;1.37;;;0.83;;
9767;SDS011;4923;52.520;13.494;2022-09-09T13:52:18;2.20;;;0.50;;
9767;SDS011;4923;52.520;13.494;2022-09-09T13:55:08;2.87;;;0.50;;
9767;SDS011;4923;52.520;13.494;2022-09-09T13:57:57;2.47;;;0.50;;
9767;SDS011;4923;52.520;13.494;2022-09-09T14:00:45;2.73;;;0.60;;
9767;SDS011;4923;52.520;13.494;2022-09-09T14:03:33;5.47;;;0.60;;
9767;SDS011;4923;52.520;13.494;2022-09-09T14:06:19;2.03;;;0.70;;
9767;SDS011;4923;52.520;13.494;2022-09-09T14:09:10;0.80;;;0.70;;
9767;SDS011;4923;52.520;13.494;2022-09-09T14:12:00;2.43;;;0.50;;
9767;SDS011;4923;52.520;13.494;2022-09-09T14:14:48;3.33;;;1.10;;
9767;SDS011;4923;52.520;13.494;2022-09-09T14:17:36;0.90;;;0.50;;
9767;SDS011;4923;52.520;13.494;2022-09-09T14:20:23;3.00;;;0.57;;
9767;SDS011;4923;52.520;13.494;2022-09-09T14:23:10;0.70;;;0.70;;
9767;SDS011;4923;52.520;13.494;2022-09-09T14:25:58;2.60;;;0.70;;
9767;SDS011;4923;52.520;13.494;2022-09-09T14:28:45;1.47;;;0.60;;
9767;SDS011;4923;52.520;13.494;2022-09-09T14:31:34;0.50;;;0.50;;
9767;SDS011;4923;52.520;13.494;2022-09-09T14:34:21;1.00;;;0.50;;
9767;SDS011;4923;52.520;13.494;2022-09-09T14:37:08;2.03;;;0.70;;
9767;SDS011;4923;52.520;13.494;2022-09-09T14:39:58;1.23;;;0.87;;
9767;SDS011;4923;52.520;13.494;2022-09-09T14:42:45;3.13;;;0.70;;
9767;SDS011;4923;52.520;13.494;2022-09-09T14:45:32;2.77;;;0.60;;
9767;SDS011;4923;52.520;13.494;2022-09-09T14:48:23;8.03;;;0.77;;
9767;SDS011;4923;52.520;13.494;2022-09-09T14:51:12;1.53;;;0.70;;
9767;SDS011;4923;52.520;13.494;2022-09-09T14:54:01;3.83;;;0.90;;
9767;SDS011;4923;52.520;13.494;2022-09-09T14:56:48;3.50;;;0.50;;
9767;SDS011;4923;52.520;13.494;2022-09-09T14:59:35;1.23;;;0.50;;
9767;SDS011;4923;52.520;13.494;2022-09-09T15:02:22;0.77;;;0.40;;
9767;SDS011;4923;52.520;13.494;2022-09-09T15:05:10;3.93;;;0.93;;
9767;SDS011;4923;52.520;13.494;2022-09-09T15:07:57;2.77;;;0.67;;
9767;SDS011;4923;52.520;13.494;2022-09-09T15:10:44;1.93;;;0.60;;
9767;SDS011;4923;52.520;13.494;2022-09-09T15:13:35;1.67;;;0.60;;
9767;SDS011;4923;52.520;13.494;2022-09-09T15:16:24;1.40;;;0.90;;
9767;SDS011;4923;52.520;13.494;2022-09-09T15:19:12;2.23;;;1.20;;
9767;SDS011;4923;52.520;13.494;2022-09-09T15:22:00;1.77;;;1.07;;
9767;SDS011;4923;52.520;13.494;2022-09-09T15:24:48;3.80;;;0.77;;
9767;SDS011;4923;52.520;13.494;2022-09-09T15:27:35;4.30;;;1.13;;
9767;SDS011;4923;52.520;13.494;2022-09-09T15:30:24;2.43;;;0.50;;
9767;SDS011;4923;52.520;13.494;2022-09-09T15:33:12;1.27;;;0.70;;
9767;SDS011;4923;52.520;13.494;2022-09-09T15:35:59;1.60;;;0.60;;
9767;SDS011;4923;52.520;13.494;2022-09-09T15:38:48;1.10;;;0.70;;
9767;SDS011;4923;52.520;13.494;2022-09-09T15:41:35;2.50;;;0.60;;
9767;SDS011;4923;52.520;13.494;2022-09-09T15:44:22;4.83;;;0.80;;
9767;SDS011;4923;52.520;13.494;2022-09-09T15:47:10;1.90;;;0.63;;
9767;SDS011;4923;52.520;13.494;2022-09-09T15:49:59;0.60;;;0.60;;
9767;SDS011;4923;52.520;13.494;2022-09-09T15:52:47;2.40;;;0.60;;
9767;SDS011;4923;52.520;13.494;2022-09-09T15:55:35;2.00;;;0.60;;
9767;SDS011;4923;52.520;13.494;2022-09-09T15:58:22;0.40;;;0.40;;
9767;SDS011;4923;52.520;13.494;2022-09-09T16:01:09;1.50;;;1.10;;
9767;SDS011;4923;52.520;13.494;2022-09-09T16:03:58;1.93;;;0.70;;
9767;SDS011;4923;52.520;13.494;2022-09-09T16:06:45;1.63;;;0.70;;
9767;SDS011;4923;52.520;13.494;2022-09-09T16:09:32;0.80;;;0.80;;
9767;SDS011;4923;52.520;13.494;2022-09-09T16:12:23;2.77;;;0.70;;
9767;SDS011;4923;52.520;13.494;2022-09-09T16:15:10;1.47;;;0.50;;
9767;SDS011;4923;52.520;13.494;2022-09-09T16:17:58;1.57;;;1.13;;
9767;SDS011;4923;52.520;13.494;2022-09-09T16:20:52;1.80;;;0.60;;
9767;SDS011;4923;52.520;13.494;2022-09-09T16:23:40;4.53;;;0.60;;
9767;SDS011;4923;52.520;13.494;2022-09-09T16:26:27;1.57;;;0.87;;
9767;SDS011;4923;52.520;13.494;2022-09-09T16:29:17;1.90;;;1.13;;
9767;SDS011;4923;52.520;13.494;2022-09-09T16:32:05;2.57;;;0.90;;
9767;SDS011;4923;52.520;13.494;2022-09-09T16:34:53;2.10;;;0.70;;
9767;SDS011;4923;52.520;13.494;2022-09-09T16:37:40;1.43;;;0.60;;
9767;SDS011;4923;52.520;13.494;2022-09-09T16:40:28;0.97;;;0.70;;
9767;SDS011;4923;52.520;13.494;2022-09-09T16:43:15;1.63;;;0.90;;
9767;SDS011;4923;52.520;13.494;2022-09-09T16:46:08;8.83;;;2.50;;
9767;SDS011;4923;52.520;13.494;2022-09-09T16:48:59;5.90;;;2.43;;
9767;SDS011;4923;52.520;13.494;2022-09-09T16:51:48;3.70;;;2.23;;
9767;SDS011;4923;52.520;13.494;2022-09-09T16:54:38;2.10;;;1.13;;
9767;SDS011;4923;52.520;13.494;2022-09-09T16:57:25;3.53;;;0.70;;
9767;SDS011;4923;52.520;13.494;2022-09-09T17:00:15;3.27;;;1.37;;
9767;SDS011;4923;52.520;13.494;2022-09-09T17:03:04;1.40;;;0.70;;
9767;SDS011;4923;52.520;13.494;2022-09-09T17:05:51;2.37;;;1.03;;
9767;SDS011;4923;52.520;13.494;2022-09-09T17:08:38;4.10;;;0.90;;
9767;SDS011;4923;52.520;13.494;2022-09-09T17:11:28;1.30;;;0.70;;
9767;SDS011;4923;52.520;13.494;2022-09-09T17:14:19;2.33;;;0.70;;
9767;SDS011;4923;52.520;13.494;2022-09-09T17:17:11;2.97;;;0.70;;
9767;SDS011;4923;52.520;13.494;2022-09-09T17:20:07;4.70;;;0.50;;